createdAt,value
2018-09-10T00:02:15.478Z,1.90
2018-09-10T00:04:44.186Z,2.00
2018-09-10T00:07:12.798Z,1.80
2018-09-10T00:09:41.320Z,2.03
2018-09-10T00:12:10.919Z,2.20
2018-09-10T00:14:39.510Z,1.93
2018-09-10T00:17:08.572Z,2.17
2018-09-10T00:19:37.157Z,2.00
2018-09-10T00:22:05.937Z,2.80
2018-09-10T00:24:34.717Z,2.10
2018-09-10T00:27:03.215Z,2.03
2018-09-10T00:29:31.717Z,2.10
2018-09-10T00:32:00.268Z,2.30
2018-09-10T00:34:28.772Z,1.77
2018-09-10T00:36:58.115Z,2.00
2018-09-10T00:39:27.008Z,2.00
2018-09-10T00:41:55.579Z,1.80
2018-09-10T00:44:24.261Z,1.90
2018-09-10T00:46:52.917Z,1.80
2018-09-10T00:49:21.401Z,1.90
2018-09-10T00:51:50.094Z,2.10
2018-09-10T00:54:18.696Z,1.90
2018-09-10T00:56:47.235Z,2.17
2018-09-10T00:59:15.798Z,2.03
2018-09-10T01:01:44.517Z,2.70
2018-09-10T01:04:13.682Z,2.20
2018-09-10T01:06:42.283Z,1.97
2018-09-10T01:09:11.186Z,2.03
2018-09-10T01:11:40.576Z,2.00
2018-09-10T01:14:09.446Z,2.30
2018-09-10T01:16:37.974Z,2.40
2018-09-10T01:19:06.480Z,2.00
2018-09-10T01:21:36.567Z,2.00
2018-09-10T01:24:05.169Z,2.43
2018-09-10T01:26:33.708Z,2.00
2018-09-10T01:29:09.439Z,2.40
2018-09-10T01:31:38.010Z,1.93
2018-09-10T01:34:11.969Z,2.73
2018-09-10T01:36:40.524Z,2.50
2018-09-10T01:39:09.751Z,2.17
2018-09-10T01:41:38.302Z,2.30
2018-09-10T01:44:06.901Z,2.23
2018-09-10T01:46:35.410Z,2.60
2018-09-10T01:49:03.974Z,2.23
2018-09-10T01:51:32.605Z,2.30
2018-09-10T01:54:01.129Z,2.20
2018-09-10T01:56:29.787Z,2.73
2018-09-10T01:58:58.313Z,2.70
2018-09-10T02:01:26.789Z,2.30
2018-09-10T02:03:55.407Z,2.60
2018-09-10T02:06:23.916Z,2.33
2018-09-10T02:08:52.478Z,2.10
2018-09-10T02:11:21.025Z,2.80
2018-09-10T02:13:49.563Z,2.27
2018-09-10T02:16:18.213Z,2.10
2018-09-10T02:18:47.425Z,2.10
2018-09-10T02:21:16.567Z,2.10
2018-09-10T02:23:45.137Z,2.10
2018-09-10T02:26:13.643Z,2.23
2018-09-10T02:28:42.178Z,1.93
2018-09-10T02:31:10.662Z,2.37
2018-09-10T02:33:39.156Z,2.10
2018-09-10T02:36:07.689Z,1.90
2018-09-10T02:38:36.359Z,2.30
2018-09-10T02:41:04.810Z,2.10
2018-09-10T02:43:33.298Z,2.10
2018-09-10T02:46:01.808Z,2.50
2018-09-10T02:48:30.411Z,2.10
2018-09-10T02:50:58.943Z,2.00
2018-09-10T02:53:29.504Z,2.67
2018-09-10T02:55:58.133Z,2.03
2018-09-10T02:58:26.655Z,1.87
2018-09-10T03:00:55.186Z,2.13
2018-09-10T03:03:23.712Z,1.97
2018-09-10T03:05:52.282Z,2.30
2018-09-10T03:08:20.749Z,2.07
2018-09-10T03:10:49.271Z,2.10
2018-09-10T03:13:17.757Z,2.00
2018-09-10T03:15:46.290Z,1.90
2018-09-10T03:18:14.852Z,1.63
2018-09-10T03:20:43.590Z,2.10
2018-09-10T03:23:12.155Z,2.00
2018-09-10T03:25:40.897Z,1.80
2018-09-10T03:28:09.432Z,1.80
2018-09-10T03:30:38.129Z,2.37
2018-09-10T03:33:23.969Z,2.17
2018-09-10T03:35:52.435Z,2.23
2018-09-10T03:38:20.979Z,2.30
2018-09-10T03:40:49.425Z,2.00
2018-09-10T03:43:17.947Z,2.43
2018-09-10T03:45:46.413Z,2.23
2018-09-10T03:48:14.911Z,2.20
2018-09-10T03:50:43.410Z,2.00
2018-09-10T03:53:11.910Z,2.37
2018-09-10T03:55:40.454Z,2.10
2018-09-10T03:58:09.000Z,1.77
2018-09-10T04:00:37.510Z,2.07
2018-09-10T04:03:06.110Z,1.87
2018-09-10T04:05:34.652Z,1.80
2018-09-10T04:08:03.371Z,1.70
2018-09-10T04:10:31.902Z,1.70
2018-09-10T04:13:00.452Z,1.90
2018-09-10T04:15:28.985Z,1.70
2018-09-10T04:17:57.533Z,1.70
2018-09-10T04:20:26.040Z,1.70
2018-09-10T04:22:54.558Z,1.93
2018-09-10T04:25:23.100Z,1.73
2018-09-10T04:27:51.610Z,1.60
2018-09-10T04:30:20.078Z,1.73
2018-09-10T04:32:48.599Z,1.90
2018-09-10T04:35:17.121Z,1.80
2018-09-10T04:37:45.641Z,1.97
2018-09-10T04:40:14.132Z,2.10
2018-09-10T04:42:42.601Z,1.87
2018-09-10T04:45:11.475Z,1.87
2018-09-10T04:47:40.108Z,1.47
2018-09-10T04:50:08.741Z,1.87
2018-09-10T04:52:37.286Z,1.90
2018-09-10T04:55:06.141Z,1.80
2018-09-10T04:57:35.074Z,1.83
2018-09-10T05:00:03.697Z,1.97
2018-09-10T05:02:32.222Z,1.60
2018-09-10T05:05:00.858Z,1.70
2018-09-10T05:07:29.383Z,1.97
2018-09-10T05:09:57.977Z,1.70
2018-09-10T05:12:26.477Z,1.67
2018-09-10T05:14:55.001Z,1.70
2018-09-10T05:17:23.484Z,1.90
2018-09-10T05:19:52.126Z,2.00
2018-09-10T05:22:20.689Z,1.73
2018-09-10T05:24:49.180Z,1.70
2018-09-10T05:27:17.705Z,1.60
2018-09-10T05:29:46.217Z,1.60
2018-09-10T05:32:14.807Z,1.87
2018-09-10T05:34:43.369Z,2.03
2018-09-10T05:37:11.870Z,1.80
2018-09-10T05:39:40.519Z,1.60
2018-09-10T05:42:09.120Z,1.90
2018-09-10T05:44:37.667Z,2.10
2018-09-10T05:47:06.204Z,1.97
2018-09-10T05:49:34.788Z,2.20
2018-09-10T05:52:03.398Z,1.93
2018-09-10T05:54:31.919Z,1.90
2018-09-10T05:57:00.462Z,1.93
2018-09-10T05:59:29.033Z,2.20
2018-09-10T06:01:57.599Z,2.00
2018-09-10T06:04:26.192Z,1.60
2018-09-10T06:06:54.709Z,1.90
2018-09-10T06:09:23.247Z,2.00
2018-09-10T06:11:51.773Z,2.10
2018-09-10T06:14:20.453Z,1.90
2018-09-10T06:16:49.042Z,1.90
2018-09-10T06:19:17.701Z,1.97
2018-09-10T06:21:46.200Z,2.10
2018-09-10T06:24:14.700Z,2.13
2018-09-10T06:26:43.224Z,2.10
2018-09-10T06:29:11.747Z,2.30
2018-09-10T06:31:40.299Z,2.30
2018-09-10T06:34:08.878Z,2.23
2018-09-10T06:36:37.603Z,2.40
2018-09-10T06:39:09.330Z,2.33
2018-09-10T06:41:38.105Z,2.63
2018-09-10T06:44:06.939Z,2.50
2018-09-10T06:46:35.924Z,2.80
2018-09-10T06:49:04.673Z,2.70
2018-09-10T06:51:33.788Z,3.07
2018-09-10T06:54:02.363Z,2.87
2018-09-10T06:56:30.890Z,2.90
2018-09-10T06:58:59.728Z,2.93
2018-09-10T07:01:28.204Z,3.33
2018-09-10T07:03:56.759Z,2.67
2018-09-10T07:06:25.278Z,3.00
2018-09-10T07:08:53.853Z,2.83
2018-09-10T07:11:22.345Z,2.83
2018-09-10T07:13:50.965Z,3.20
2018-09-10T07:16:19.471Z,3.00
2018-09-10T07:18:48.123Z,3.17
2018-09-10T07:21:16.529Z,3.10
2018-09-10T07:23:45.044Z,2.87
2018-09-10T07:26:13.539Z,2.87
2018-09-10T07:28:42.073Z,2.73
2018-09-10T07:31:10.577Z,3.43
2018-09-10T07:33:39.071Z,2.87
2018-09-10T07:36:07.707Z,3.10
2018-09-10T07:38:36.421Z,2.80
2018-09-10T07:41:05.465Z,3.00
2018-09-10T07:43:34.255Z,3.10
2018-09-10T07:46:02.980Z,3.03
2018-09-10T07:48:31.671Z,3.23
2018-09-10T07:51:00.729Z,3.10
2018-09-10T07:53:29.377Z,3.50
2018-09-10T07:55:58.147Z,3.47
2018-09-10T07:58:27.187Z,3.77
2018-09-10T08:00:56.205Z,3.20
2018-09-10T08:03:25.025Z,3.70
2018-09-10T08:05:53.863Z,3.70
2018-09-10T08:08:22.795Z,3.83
2018-09-10T08:10:51.557Z,4.60
2018-09-10T08:13:20.564Z,3.97
2018-09-10T08:15:50.099Z,4.97
2018-09-10T08:18:19.369Z,4.57
2018-09-10T08:20:48.578Z,4.87
2018-09-10T08:23:17.707Z,4.80
2018-09-10T08:25:46.778Z,4.93
2018-09-10T08:28:15.924Z,4.90
2018-09-10T08:30:45.171Z,4.60
2018-09-10T08:33:13.908Z,4.53
2018-09-10T08:35:42.846Z,5.30
2018-09-10T08:38:11.540Z,5.67
2018-09-10T08:40:40.583Z,5.40
2018-09-10T08:43:09.415Z,6.00
2018-09-10T08:45:38.171Z,5.47
2018-09-10T08:48:07.348Z,4.90
2018-09-10T08:50:36.222Z,5.80
2018-09-10T08:53:05.066Z,6.00
2018-09-10T08:55:33.781Z,6.50
2018-09-10T08:58:02.593Z,6.13
2018-09-10T09:00:31.493Z,5.77
2018-09-10T09:03:00.226Z,6.10
2018-09-10T09:05:29.054Z,5.33
2018-09-10T09:07:57.723Z,6.07
2018-09-10T09:10:26.267Z,5.60
2018-09-10T09:12:54.800Z,5.70
2018-09-10T09:15:23.261Z,5.20
2018-09-10T09:17:51.817Z,5.47
2018-09-10T09:20:20.313Z,5.57
2018-09-10T09:22:49.016Z,5.43
2018-09-10T09:25:17.505Z,5.07
2018-09-10T09:27:46.237Z,5.00
2018-09-10T09:30:14.834Z,5.30
2018-09-10T09:32:43.324Z,5.57
2018-09-10T09:35:11.844Z,5.90
2018-09-10T09:37:45.762Z,5.00
2018-09-10T09:40:19.683Z,4.80
2018-09-10T09:42:53.404Z,4.40
2018-09-10T09:45:27.346Z,4.50
2018-09-10T09:47:55.844Z,4.70
2018-09-10T09:50:24.390Z,5.10
2018-09-10T09:52:52.850Z,5.27
2018-09-10T09:55:21.346Z,5.37
2018-09-10T09:57:49.826Z,5.20
2018-09-10T10:00:23.803Z,5.23
2018-09-10T10:03:01.560Z,5.10
2018-09-10T10:05:30.173Z,4.93
2018-09-10T10:07:58.682Z,5.50
2018-09-10T10:10:27.224Z,6.27
2018-09-10T10:12:55.721Z,6.10
2018-09-10T10:15:24.230Z,5.70
2018-09-10T10:17:52.792Z,7.10
2018-09-10T10:20:21.309Z,7.20
2018-09-10T10:22:49.849Z,6.80
2018-09-10T10:25:18.361Z,6.20
2018-09-10T10:27:46.924Z,6.47
2018-09-10T10:30:15.493Z,6.17
2018-09-10T10:32:44.093Z,7.13
2018-09-10T10:35:12.671Z,6.67
2018-09-10T10:37:41.871Z,5.73
2018-09-10T10:40:10.454Z,6.37
2018-09-10T10:42:39.017Z,5.53
2018-09-10T10:45:08.349Z,4.50
2018-09-10T10:47:36.957Z,4.23
2018-09-10T10:50:05.695Z,4.43
2018-09-10T10:52:34.261Z,4.07
2018-09-10T10:55:02.772Z,3.97
2018-09-10T10:57:31.326Z,4.40
2018-09-10T10:59:59.789Z,4.57
2018-09-10T11:02:28.313Z,4.60
2018-09-10T11:04:56.853Z,3.80
2018-09-10T11:07:25.287Z,4.50
2018-09-10T11:09:53.785Z,3.80
2018-09-10T11:12:22.302Z,3.10
2018-09-10T11:14:50.866Z,3.40
2018-09-10T11:17:19.393Z,3.33
2018-09-10T11:19:47.877Z,3.43
2018-09-10T11:22:16.337Z,2.93
2018-09-10T11:24:44.847Z,3.33
2018-09-10T11:27:13.341Z,3.60
2018-09-10T11:29:41.949Z,3.93
2018-09-10T11:32:10.445Z,3.57
2018-09-10T11:34:39.309Z,3.10
2018-09-10T11:37:07.843Z,3.30
2018-09-10T11:39:36.408Z,3.20
2018-09-10T11:42:05.029Z,2.53
2018-09-10T11:44:33.501Z,2.80
2018-09-10T11:47:02.430Z,3.20
2018-09-10T11:49:31.115Z,3.17
2018-09-10T11:51:59.684Z,2.87
2018-09-10T11:54:28.263Z,3.17
2018-09-10T11:56:56.873Z,2.80
2018-09-10T11:59:25.542Z,2.67
2018-09-10T12:01:54.052Z,3.00
2018-09-10T12:04:22.623Z,3.07
2018-09-10T12:06:51.248Z,2.40
2018-09-10T12:09:19.799Z,3.73
2018-09-10T12:11:48.530Z,3.20
2018-09-10T12:14:17.127Z,3.23
2018-09-10T12:16:45.681Z,2.50
2018-09-10T12:19:14.304Z,2.43
2018-09-10T12:21:42.955Z,2.70
2018-09-10T12:24:11.485Z,2.50
2018-09-10T12:26:40.045Z,2.50
2018-09-10T12:29:08.627Z,2.60
2018-09-10T12:31:37.206Z,2.40
2018-09-10T12:34:05.874Z,2.70
2018-09-10T12:36:34.454Z,2.30
2018-09-10T12:39:03.148Z,2.30
2018-09-10T12:41:31.709Z,2.50
2018-09-10T12:44:00.331Z,2.30
2018-09-10T12:46:29.150Z,2.67
2018-09-10T12:48:58.894Z,2.43
2018-09-10T12:51:27.618Z,2.50
2018-09-10T12:53:56.238Z,3.13
2018-09-10T12:56:24.999Z,3.10
2018-09-10T12:58:53.707Z,3.10
2018-09-10T13:01:22.492Z,2.67
2018-09-10T13:03:51.313Z,2.50
2018-09-10T13:06:19.923Z,2.90
2018-09-10T13:08:48.587Z,2.70
2018-09-10T13:11:17.057Z,2.43
2018-09-10T13:13:45.610Z,2.87
2018-09-10T13:16:14.112Z,2.20
2018-09-10T13:18:42.671Z,2.40
2018-09-10T13:21:11.124Z,2.40
2018-09-10T13:23:39.624Z,2.30
2018-09-10T13:26:08.089Z,2.77
2018-09-10T13:28:36.579Z,2.43
2018-09-10T13:31:05.023Z,2.20
2018-09-10T13:33:33.503Z,2.30
2018-09-10T13:36:01.943Z,2.20
2018-09-10T13:38:30.500Z,2.13
2018-09-10T13:40:58.965Z,2.50
2018-09-10T13:43:27.448Z,2.40
2018-09-10T13:45:55.904Z,2.10
2018-09-10T13:48:24.502Z,2.40
2018-09-10T13:50:53.050Z,2.40
2018-09-10T13:53:21.557Z,2.33
2018-09-10T13:55:50.188Z,2.23
2018-09-10T13:58:18.836Z,2.23
2018-09-10T14:00:47.380Z,2.47
2018-09-10T14:03:15.998Z,2.13
2018-09-10T14:05:44.655Z,2.47
2018-09-10T14:08:13.154Z,2.40
2018-09-10T14:10:41.683Z,2.47
2018-09-10T14:13:10.218Z,2.10
2018-09-10T14:15:38.852Z,2.20
2018-09-10T14:18:07.833Z,2.10
2018-09-10T14:20:36.827Z,2.30
2018-09-10T14:23:05.410Z,2.10
2018-09-10T14:25:33.959Z,2.63
2018-09-10T14:28:02.388Z,2.07
2018-09-10T14:30:31.019Z,2.20
2018-09-10T14:32:59.517Z,2.35
2018-09-10T14:35:28.720Z,2.73
2018-09-10T14:38:02.102Z,2.70
2018-09-10T14:40:31.057Z,2.23
2018-09-10T14:42:59.831Z,2.20
2018-09-10T14:45:28.691Z,2.20
2018-09-10T14:47:58.552Z,2.80
2018-09-10T14:50:27.326Z,2.10
2018-09-10T14:52:55.950Z,2.23
2018-09-10T14:55:24.903Z,2.20
2018-09-10T14:57:53.383Z,3.10
2018-09-10T15:00:25.624Z,2.57
2018-09-10T15:02:55.158Z,2.90
2018-09-10T15:05:23.596Z,2.00
2018-09-10T15:07:53.151Z,2.57
2018-09-10T15:10:21.851Z,2.47
2018-09-10T15:12:50.547Z,2.30
2018-09-10T15:15:19.043Z,2.40
2018-09-10T15:17:48.315Z,2.00
2018-09-10T15:20:16.781Z,2.77
2018-09-10T15:22:45.263Z,1.90
2018-09-10T15:25:13.826Z,2.57
2018-09-10T15:27:42.316Z,2.30
2018-09-10T15:30:11.201Z,2.67
2018-09-10T15:32:40.162Z,2.77
2018-09-10T15:35:08.635Z,2.23
2018-09-10T15:37:37.311Z,2.30
2018-09-10T15:40:05.871Z,2.30
2018-09-10T15:42:35.890Z,2.97
2018-09-10T15:45:04.637Z,2.30
2018-09-10T15:47:33.089Z,2.67
2018-09-10T15:50:01.559Z,2.23
2018-09-10T15:52:30.097Z,2.57
2018-09-10T15:54:58.973Z,3.07
2018-09-10T15:57:27.467Z,2.80
2018-09-10T15:59:56.054Z,4.07
2018-09-10T16:02:24.485Z,2.90
2018-09-10T16:04:53.160Z,2.13
2018-09-10T16:07:21.639Z,2.87
2018-09-10T16:09:50.098Z,2.33
2018-09-10T16:12:18.604Z,2.57
2018-09-10T16:14:47.059Z,2.07
2018-09-10T16:17:15.784Z,2.60
2018-09-10T16:19:44.222Z,2.70
2018-09-10T16:22:13.594Z,2.60
2018-09-10T16:24:42.351Z,2.87
2018-09-10T16:27:10.859Z,3.03
2018-09-10T16:29:39.353Z,2.60
2018-09-10T16:32:07.852Z,3.00
2018-09-10T16:34:36.472Z,3.57
2018-09-10T16:37:05.017Z,3.67
2018-09-10T16:39:33.494Z,3.20
2018-09-10T16:42:01.988Z,3.20
2018-09-10T16:44:30.753Z,3.30
2018-09-10T16:46:59.258Z,4.00
2018-09-10T16:49:27.752Z,4.37
2018-09-10T16:51:56.207Z,3.30
2018-09-10T16:54:24.676Z,3.33
2018-09-10T16:56:53.221Z,2.80
2018-09-10T16:59:21.823Z,3.50
2018-09-10T17:01:50.368Z,3.03
2018-09-10T17:04:18.799Z,2.97
2018-09-10T17:06:47.330Z,2.60
2018-09-10T17:09:15.977Z,2.70
2018-09-10T17:11:44.444Z,2.43
2018-09-10T17:14:13.012Z,2.80
2018-09-10T17:16:41.510Z,2.60
2018-09-10T17:19:10.035Z,2.87
2018-09-10T17:21:38.630Z,3.60
2018-09-10T17:24:07.106Z,3.37
2018-09-10T17:26:35.706Z,2.67
2018-09-10T17:29:04.191Z,3.00
2018-09-10T17:31:32.718Z,3.83
2018-09-10T17:34:01.494Z,2.90
2018-09-10T17:36:30.037Z,2.63
2018-09-10T17:38:58.534Z,2.60
2018-09-10T17:41:27.191Z,2.90
2018-09-10T17:43:56.599Z,2.27
2018-09-10T17:46:25.282Z,2.37
2018-09-10T17:48:53.765Z,2.77
2018-09-10T17:51:22.263Z,2.60
2018-09-10T17:53:50.803Z,3.17
2018-09-10T17:56:19.295Z,2.57
2018-09-10T17:58:47.885Z,2.63
2018-09-10T18:01:16.341Z,2.70
2018-09-10T18:03:44.947Z,2.57
2018-09-10T18:06:13.718Z,2.60
2018-09-10T18:08:42.203Z,3.37
2018-09-10T18:11:10.849Z,2.67
2018-09-10T18:13:39.336Z,2.70
2018-09-10T18:16:07.810Z,2.50
2018-09-10T18:18:36.323Z,2.77
2018-09-10T18:21:04.812Z,2.80
2018-09-10T18:23:33.291Z,2.77
2018-09-10T18:26:01.760Z,2.70
2018-09-10T18:28:30.474Z,2.50
2018-09-10T18:30:59.527Z,2.77
2018-09-10T18:33:28.178Z,3.00
2018-09-10T18:35:56.632Z,2.60
2018-09-10T18:38:25.091Z,3.00
2018-09-10T18:40:53.592Z,2.53
2018-09-10T18:43:22.166Z,2.57
2018-09-10T18:45:50.660Z,3.10
2018-09-10T18:48:19.115Z,3.20
2018-09-10T18:50:48.322Z,3.00
2018-09-10T18:53:16.811Z,3.00
2018-09-10T18:55:45.363Z,2.80
2018-09-10T18:58:13.869Z,3.00
2018-09-10T19:00:42.472Z,2.87
2018-09-10T19:03:10.829Z,2.40
2018-09-10T19:05:39.439Z,2.63
2018-09-10T19:08:07.945Z,2.77
2018-09-10T19:10:36.547Z,2.70
2018-09-10T19:13:05.168Z,2.80
2018-09-10T19:15:33.683Z,3.00
2018-09-10T19:18:02.242Z,2.97
2018-09-10T19:20:30.797Z,3.40
2018-09-10T19:22:59.229Z,3.30
2018-09-10T19:25:27.757Z,3.33
2018-09-10T19:27:56.204Z,3.33
2018-09-10T19:30:24.671Z,3.03
2018-09-10T19:32:53.203Z,2.90
2018-09-10T19:35:21.657Z,3.50
2018-09-10T19:37:50.186Z,3.47
2018-09-10T19:40:18.635Z,3.03
2018-09-10T19:42:47.298Z,3.17
2018-09-10T19:45:15.754Z,3.57
2018-09-10T19:47:44.362Z,3.33
2018-09-10T19:50:12.919Z,3.50
2018-09-10T19:52:41.502Z,2.87
2018-09-10T19:55:10.053Z,2.80
2018-09-10T19:57:38.641Z,2.77
2018-09-10T20:00:07.148Z,3.30
2018-09-10T20:02:35.791Z,3.17
2018-09-10T20:05:04.292Z,3.03
2018-09-10T20:07:32.973Z,3.50
2018-09-10T20:10:01.456Z,3.43
2018-09-10T20:12:29.954Z,3.40
2018-09-10T20:14:58.427Z,3.40
2018-09-10T20:17:26.863Z,3.30
2018-09-10T20:19:55.346Z,3.10
2018-09-10T20:22:23.824Z,3.17
2018-09-10T20:24:52.371Z,3.60
2018-09-10T20:27:21.112Z,3.30
2018-09-10T20:29:49.631Z,3.17
2018-09-10T20:32:18.414Z,3.40
2018-09-10T20:34:46.837Z,3.23
2018-09-10T20:37:15.319Z,3.60
2018-09-10T20:39:43.820Z,3.50
2018-09-10T20:42:12.353Z,3.47
2018-09-10T20:44:42.661Z,3.83
2018-09-10T20:47:11.257Z,3.60
2018-09-10T20:49:39.739Z,3.37
2018-09-10T20:52:08.183Z,4.10
2018-09-10T20:54:36.655Z,3.50
2018-09-10T20:57:05.117Z,3.93
2018-09-10T20:59:33.655Z,3.00
2018-09-10T21:02:02.135Z,3.57
2018-09-10T21:04:30.595Z,3.50
2018-09-10T21:06:59.075Z,3.33
2018-09-10T21:09:27.554Z,3.57
2018-09-10T21:11:56.042Z,3.97
2018-09-10T21:14:24.531Z,3.27
2018-09-10T21:16:53.042Z,3.53
2018-09-10T21:19:21.876Z,2.67
2018-09-10T21:21:50.640Z,3.63
2018-09-10T21:24:19.178Z,3.30
2018-09-10T21:26:47.679Z,2.80
2018-09-10T21:29:16.112Z,2.87
2018-09-10T21:31:44.577Z,2.73
2018-09-10T21:34:13.139Z,3.37
2018-09-10T21:36:41.677Z,2.83
2018-09-10T21:39:10.642Z,2.93
2018-09-10T21:41:39.459Z,2.70
2018-09-10T21:44:08.440Z,3.20
2018-09-10T21:46:36.913Z,2.80
2018-09-10T21:49:05.362Z,2.73
2018-09-10T21:51:33.841Z,2.70
2018-09-10T21:54:02.250Z,2.43
2018-09-10T21:56:30.732Z,3.20
2018-09-10T21:58:59.253Z,2.30
2018-09-10T22:01:27.726Z,2.43
2018-09-10T22:03:56.137Z,2.60
2018-09-10T22:06:24.642Z,2.60
2018-09-10T22:08:53.152Z,2.77
2018-09-10T22:11:21.653Z,2.43
2018-09-10T22:13:50.135Z,2.70
2018-09-10T22:16:18.966Z,2.40
2018-09-10T22:18:47.550Z,2.40
2018-09-10T22:21:16.070Z,2.73
2018-09-10T22:23:44.523Z,2.83
2018-09-10T22:26:13.074Z,2.83
2018-09-10T22:28:41.666Z,3.20
2018-09-10T22:31:10.227Z,3.33
2018-09-10T22:33:38.767Z,2.33
2018-09-10T22:36:07.278Z,2.50
2018-09-10T22:38:35.739Z,2.60
2018-09-10T22:41:04.247Z,2.43
2018-09-10T22:43:32.962Z,2.60
2018-09-10T22:46:01.485Z,2.80
2018-09-10T22:48:30.202Z,2.50
2018-09-10T22:50:58.664Z,2.20
2018-09-10T22:53:27.420Z,2.17
2018-09-10T22:55:56.225Z,2.63
2018-09-10T22:58:24.812Z,2.33
2018-09-10T23:00:53.346Z,2.30
2018-09-10T23:03:21.871Z,2.07
2018-09-10T23:05:50.446Z,2.00
2018-09-10T23:08:19.001Z,2.10
2018-09-10T23:10:47.532Z,2.63
2018-09-10T23:13:16.089Z,2.40
2018-09-10T23:15:44.637Z,2.57
2018-09-10T23:18:13.183Z,2.57
2018-09-10T23:20:41.714Z,2.73
2018-09-10T23:23:10.263Z,2.83
2018-09-10T23:25:38.844Z,2.70
2018-09-10T23:28:07.471Z,2.67
2018-09-10T23:30:36.014Z,3.00
2018-09-10T23:33:04.527Z,3.40
2018-09-10T23:35:33.029Z,3.80
2018-09-10T23:38:01.621Z,4.53
2018-09-10T23:40:30.173Z,3.70
2018-09-10T23:42:58.645Z,4.17
2018-09-10T23:45:27.090Z,3.73
2018-09-10T23:47:55.619Z,4.07
2018-09-10T23:50:24.064Z,3.93
2018-09-10T23:52:52.583Z,4.30
2018-09-10T23:55:21.102Z,4.10
2018-09-10T23:57:49.628Z,4.10
